Time;durP1;ratioP1;P1;durP2;ratioP2;P2;SDS_P1;SDS_P2;PMS_P1;PMS_P2;Temp;Humidity;BMP_temperature;BMP_pressure;BME280_temperature;BME280_humidity;BME280_pressure;Samples;Min_cycle;Max_cycle;Signal;HPM_P1;HPM_P2
2022/06/24 00:01:16;;;;;;;10.18;2.85;;;22.80;94.70;;;;;;5034373;28;20064;-44
2022/06/24 00:03:45;;;;;;;4.95;1.48;;;22.80;95.00;;;;;;5034423;28;20032;-44
2022/06/24 00:06:18;;;;;;;5.93;1.00;;;22.80;95.40;;;;;;5034112;28;20465;-43
2022/06/24 00:08:47;;;;;;;3.35;1.13;;;22.70;95.70;;;;;;5033937;28;20144;-45
2022/06/24 00:11:13;;;;;;;3.08;1.17;;;22.60;95.80;;;;;;5016294;28;20068;-46
2022/06/24 00:13:39;;;;;;;6.22;1.13;;;22.60;96.10;;;;;;5033765;28;20052;-47
2022/06/24 00:16:05;;;;;;;2.60;1.20;;;22.40;96.40;;;;;;5033868;28;20104;-44
2022/06/24 00:18:31;;;;;;;7.78;1.42;;;22.40;96.90;;;;;;5033762;28;20142;-47
2022/06/24 00:20:56;;;;;;;3.78;0.90;;;22.30;97.00;;;;;;5033868;28;20036;-45
2022/06/24 00:23:22;;;;;;;12.88;2.55;;;22.30;97.30;;;;;;5033648;28;20164;-47
2022/06/24 00:25:49;;;;;;;10.35;2.15;;;22.20;97.50;;;;;;5033736;28;20029;-44
2022/06/24 00:28:15;;;;;;;5.63;1.67;;;22.10;97.80;;;;;;5033558;28;20031;-45
2022/06/24 00:30:50;;;;;;;3.72;1.38;;;22.20;98.00;;;;;;5033692;28;20033;-44
2022/06/24 00:33:21;;;;;;;4.07;1.50;;;22.10;98.20;;;;;;5033796;28;20093;-44
2022/06/24 00:35:48;;;;;;;4.40;1.40;;;22.00;98.50;;;;;;5033624;28;20033;-45
2022/06/24 00:38:27;;;;;;;7.28;1.00;;;21.90;98.90;;;;;;5033348;28;20045;-44
2022/06/24 00:40:56;;;;;;;3.15;1.23;;;21.90;99.20;;;;;;5033372;28;20026;-43
2022/06/24 00:43:27;;;;;;;3.58;1.95;;;21.90;99.50;;;;;;5039698;22;20056;-49
2022/06/24 00:45:59;;;;;;;6.93;1.45;;;21.80;99.80;;;;;;5013557;28;20052;-49
2022/06/24 00:48:29;;;;;;;3.75;1.92;;;21.70;99.90;;;;;;5013423;28;20109;-49
2022/06/24 00:50:55;;;;;;;5.70;1.30;;;21.70;99.90;;;;;;5013851;28;20389;-50
2022/06/24 00:53:20;;;;;;;6.72;1.33;;;21.80;99.90;;;;;;5013774;28;20448;-47
2022/06/24 00:55:47;;;;;;;9.77;2.05;;;21.90;99.90;;;;;;5013401;28;20101;-47
2022/06/24 00:58:16;;;;;;;3.65;1.33;;;21.80;99.90;;;;;;5013106;28;20105;-46
2022/06/24 01:00:44;;;;;;;5.72;1.17;;;21.90;99.90;;;;;;5013343;28;20061;-46
2022/06/24 01:03:11;;;;;;;8.02;1.50;;;21.90;99.90;;;;;;5013359;28;20026;-46
2022/06/24 01:05:37;;;;;;;4.22;1.30;;;21.80;99.90;;;;;;5013248;28;20057;-48
2022/06/24 01:08:10;;;;;;;9.25;1.60;;;21.80;99.90;;;;;;5013053;28;20501;-46
2022/06/24 01:10:37;;;;;;;9.77;2.90;;;21.80;99.90;;;;;;5013233;28;20026;-47
2022/06/24 01:13:07;;;;;;;7.32;1.98;;;21.60;99.90;;;;;;5013032;28;20124;-46
2022/06/24 01:15:32;;;;;;;7.97;1.65;;;21.50;99.90;;;;;;5012988;28;20030;-45
2022/06/24 01:17:58;;;;;;;10.57;2.58;;;21.40;99.90;;;;;;5012803;28;20102;-49
2022/06/24 01:20:23;;;;;;;7.15;2.10;;;21.10;99.90;;;;;;4995423;28;20021;-49
2022/06/24 01:22:49;;;;;;;6.53;1.77;;;21.00;99.90;;;;;;5012699;28;20398;-46
2022/06/24 01:25:14;;;;;;;10.85;1.83;;;20.80;99.90;;;;;;5012228;28;20069;-46
2022/06/24 01:27:40;;;;;;;7.20;2.22;;;20.80;99.90;;;;;;5013537;28;20512;-44
2022/06/24 01:30:06;;;;;;;12.55;2.80;;;20.70;99.90;;;;;;5013986;28;20025;-49
2022/06/24 01:32:34;;;;;;;6.22;1.92;;;20.60;99.90;;;;;;5012817;28;20034;-46
2022/06/24 01:35:00;;;;;;;3.97;2.00;;;20.50;99.90;;;;;;5012851;28;20073;-52
2022/06/24 01:37:25;;;;;;;6.15;1.88;;;20.60;99.90;;;;;;5012326;28;20042;-46
2022/06/24 01:39:51;;;;;;;10.05;2.83;;;20.50;99.90;;;;;;5012762;28;20405;-46
2022/06/24 01:42:16;;;;;;;7.93;2.58;;;20.50;99.90;;;;;;4994802;28;20041;-46
2022/06/24 01:44:42;;;;;;;9.07;2.63;;;20.50;99.90;;;;;;5012587;28;20030;-49
2022/06/24 01:47:08;;;;;;;9.90;2.80;;;20.40;99.90;;;;;;5012221;28;20025;-50
2022/06/24 01:49:33;;;;;;;7.20;2.88;;;20.40;99.90;;;;;;5013317;28;20117;-46
2022/06/24 01:51:59;;;;;;;8.50;2.15;;;20.40;99.90;;;;;;5013450;28;20518;-47
2022/06/24 01:54:25;;;;;;;6.55;2.10;;;20.30;99.90;;;;;;5013637;28;20037;-45
2022/06/24 01:56:53;;;;;;;8.15;2.20;;;20.30;99.90;;;;;;5013217;28;20037;-48
2022/06/24 01:59:18;;;;;;;6.68;2.38;;;20.30;99.90;;;;;;5013704;28;20092;-48
2022/06/24 02:01:44;;;;;;;4.55;2.00;;;20.40;99.90;;;;;;5012482;28;20390;-49
2022/06/24 02:04:10;;;;;;;7.15;2.35;;;20.40;99.90;;;;;;5012423;28;20033;-47
2022/06/24 02:06:36;;;;;;;6.47;2.30;;;20.40;99.90;;;;;;5012004;28;20100;-50
2022/06/24 02:09:02;;;;;;;7.28;2.78;;;20.50;99.90;;;;;;5012006;28;20028;-50
2022/06/24 02:14:13;;;;;;;8.15;2.10;;;20.60;99.90;;;;;;5012239;28;20033;-46
2022/06/24 02:16:39;;;;;;;4.30;2.20;;;20.50;99.90;;;;;;5012015;28;20091;-49
2022/06/24 02:19:05;;;;;;;5.72;2.63;;;20.50;99.90;;;;;;5011768;28;20042;-48
2022/06/24 02:21:31;;;;;;;7.63;2.00;;;20.60;99.90;;;;;;5011986;28;20108;-48
2022/06/24 02:23:56;;;;;;;8.40;2.47;;;20.60;99.90;;;;;;5011578;28;20163;-49
2022/06/24 02:26:23;;;;;;;6.20;2.13;;;20.60;99.90;;;;;;5011866;28;20030;-46
2022/06/24 02:28:48;;;;;;;3.60;2.20;;;20.50;99.90;;;;;;5011558;28;20018;-48
2022/06/24 02:31:14;;;;;;;6.70;2.40;;;20.40;99.90;;;;;;5012119;28;20028;-46
2022/06/24 02:33:40;;;;;;;10.93;2.25;;;20.40;99.90;;;;;;5011904;28;20080;-45
2022/06/24 02:36:06;;;;;;;5.63;2.20;;;20.40;99.90;;;;;;5011683;28;20375;-48
2022/06/24 02:38:36;;;;;;;7.28;2.58;;;20.40;99.90;;;;;;5011741;28;20061;-46
2022/06/24 02:41:02;;;;;;;5.82;2.60;;;20.40;99.90;;;;;;5011808;28;20049;-47
2022/06/24 02:43:30;;;;;;;11.68;2.70;;;20.40;99.90;;;;;;5011576;28;20429;-46
2022/06/24 02:46:11;;;;;;;5.80;2.75;;;20.40;99.90;;;;;;5014644;28;20018;-47
2022/06/24 02:48:39;;;;;;;7.95;3.08;;;20.30;99.90;;;;;;5011703;28;20022;-47
2022/06/24 02:51:07;;;;;;;5.85;2.53;;;20.20;99.90;;;;;;5011715;28;20029;-49
2022/06/24 02:53:33;;;;;;;11.35;3.83;;;20.20;99.90;;;;;;5011598;28;20018;-46
2022/06/24 02:56:02;;;;;;;10.48;5.60;;;20.20;99.90;;;;;;5011487;28;20469;-50
2022/06/24 02:58:28;;;;;;;6.63;2.55;;;20.10;99.90;;;;;;5011220;28;20029;-50
2022/06/24 03:00:54;;;;;;;4.97;3.00;;;20.10;99.90;;;;;;5011702;28;20054;-48
2022/06/24 03:03:21;;;;;;;9.88;3.92;;;20.00;99.90;;;;;;5011555;28;20034;-48
2022/06/24 03:05:48;;;;;;;8.35;3.78;;;19.90;99.90;;;;;;5011489;28;20117;-45
2022/06/24 03:08:16;;;;;;;7.72;3.50;;;19.90;99.90;;;;;;5011205;28;20034;-48
2022/06/24 03:10:42;;;;;;;6.72;3.67;;;19.80;99.90;;;;;;5011490;28;20382;-50
2022/06/24 03:13:08;;;;;;;8.48;4.97;;;19.80;99.90;;;;;;5011836;28;20398;-47
2022/06/24 03:15:34;;;;;;;6.60;4.38;;;19.80;99.90;;;;;;5011571;28;20036;-46
2022/06/24 03:17:59;;;;;;;5.43;4.75;;;19.80;99.90;;;;;;5011147;28;20029;-46
2022/06/24 03:20:25;;;;;;;11.48;5.60;;;19.80;99.90;;;;;;5011531;28;20026;-48
2022/06/24 03:22:51;;;;;;;8.63;5.10;;;19.70;99.90;;;;;;5011370;28;20401;-46
2022/06/24 03:25:16;;;;;;;9.00;5.95;;;19.70;99.90;;;;;;5011941;28;20026;-48
2022/06/24 03:27:42;;;;;;;8.80;5.72;;;19.70;99.90;;;;;;5011236;28;20026;-46
2022/06/24 03:30:10;;;;;;;9.05;5.53;;;19.70;99.90;;;;;;5011557;28;20029;-49
2022/06/24 03:32:36;;;;;;;7.60;5.40;;;19.70;99.90;;;;;;5011340;28;20018;-51
2022/06/24 03:35:03;;;;;;;8.40;5.75;;;19.80;99.90;;;;;;4993889;28;20032;-49
2022/06/24 03:37:29;;;;;;;9.35;5.93;;;19.70;99.90;;;;;;5010728;28;20033;-47
2022/06/24 03:39:55;;;;;;;11.18;5.57;;;19.70;99.90;;;;;;5011178;28;20049;-46
2022/06/24 03:42:21;;;;;;;6.32;4.10;;;19.60;99.90;;;;;;5011004;28;20042;-48
2022/06/24 03:44:46;;;;;;;6.78;3.58;;;19.70;99.90;;;;;;5011205;28;20062;-50
2022/06/24 03:47:12;;;;;;;9.65;2.55;;;19.70;99.90;;;;;;4980414;28;20026;-42
2022/06/24 03:49:38;;;;;;;5.43;2.97;;;19.60;99.90;;;;;;5014681;28;20397;-45
2022/06/24 03:52:04;;;;;;;9.60;4.13;;;19.60;99.90;;;;;;5014702;28;20115;-45
2022/06/24 03:54:30;;;;;;;5.20;3.25;;;19.60;99.90;;;;;;5014865;28;20033;-44
2022/06/24 03:56:55;;;;;;;5.95;2.85;;;19.60;99.90;;;;;;5014591;28;20034;-44
2022/06/24 03:59:21;;;;;;;4.53;2.88;;;19.50;99.90;;;;;;5014400;28;20071;-50
2022/06/24 04:01:46;;;;;;;5.40;3.03;;;19.60;99.90;;;;;;5014365;28;20517;-47
2022/06/24 04:04:12;;;;;;;8.43;4.18;;;19.50;99.90;;;;;;5014514;28;20026;-46
2022/06/24 04:06:37;;;;;;;8.93;4.22;;;19.60;99.90;;;;;;5014347;28;20105;-50
2022/06/24 04:09:03;;;;;;;6.60;4.65;;;19.60;99.90;;;;;;5013558;28;20022;-45
2022/06/24 04:11:28;;;;;;;7.40;5.05;;;19.60;99.90;;;;;;5014380;28;20376;-45
2022/06/24 04:13:54;;;;;;;11.13;6.75;;;19.60;99.90;;;;;;5014249;28;20036;-46
2022/06/24 04:16:20;;;;;;;8.48;4.95;;;19.60;99.90;;;;;;5014021;28;20104;-49
2022/06/24 04:18:47;;;;;;;8.70;6.57;;;19.50;99.90;;;;;;5013575;28;20030;-49
2022/06/24 04:21:15;;;;;;;13.50;6.32;;;19.50;99.90;;;;;;5014299;28;20022;-46
2022/06/24 04:23:41;;;;;;;8.07;5.88;;;19.40;99.90;;;;;;5013954;28;20437;-46
2022/06/24 04:26:07;;;;;;;11.43;6.53;;;19.40;99.90;;;;;;5014239;28;20454;-44
2022/06/24 04:28:33;;;;;;;9.27;5.97;;;19.30;99.90;;;;;;5013270;28;20057;-49
2022/06/24 04:30:59;;;;;;;13.65;6.70;;;19.30;99.90;;;;;;5013557;28;20026;-44
2022/06/24 04:33:24;;;;;;;12.65;6.25;;;19.30;99.90;;;;;;5013953;28;20076;-49
2022/06/24 04:35:50;;;;;;;10.65;6.75;;;19.40;99.90;;;;;;5013818;28;20080;-45
2022/06/24 04:38:16;;;;;;;9.40;6.32;;;19.40;99.90;;;;;;5013573;28;20030;-46
2022/06/24 04:40:41;;;;;;;9.32;7.75;;;19.40;99.90;;;;;;5013765;28;20026;-44
2022/06/24 04:43:08;;;;;;;14.80;7.60;;;19.40;99.90;;;;;;5013652;28;20063;-48
2022/06/24 04:45:34;;;;;;;11.27;6.78;;;19.40;99.90;;;;;;5013248;28;20022;-52
2022/06/24 04:48:00;;;;;;;9.60;6.97;;;19.40;99.90;;;;;;5013371;28;20046;-46
2022/06/24 04:50:26;;;;;;;8.48;7.35;;;19.40;99.90;;;;;;5013562;28;20149;-52
2022/06/24 04:52:51;;;;;;;8.23;7.20;;;19.40;99.90;;;;;;5013315;28;20033;-43
2022/06/24 04:55:17;;;;;;;8.85;7.15;;;19.50;99.90;;;;;;5013598;28;20145;-47
2022/06/24 04:57:42;;;;;;;14.98;7.65;;;19.60;99.90;;;;;;5013219;28;20576;-45
2022/06/24 05:00:09;;;;;;;10.45;7.18;;;19.60;99.90;;;;;;5012362;28;20548;-46
2022/06/24 05:02:35;;;;;;;13.07;5.68;;;19.60;99.90;;;;;;5013453;28;20034;-44
2022/06/24 05:05:02;;;;;;;8.80;5.53;;;19.60;99.90;;;;;;5013228;28;20033;-44
2022/06/24 05:07:27;;;;;;;11.10;5.90;;;19.60;99.90;;;;;;4995159;28;20474;-44
2022/06/24 05:09:53;;;;;;;9.23;5.55;;;19.60;99.90;;;;;;5012865;28;20033;-45
2022/06/24 05:12:18;;;;;;;11.30;6.43;;;19.60;99.90;;;;;;5013166;28;20021;-49
2022/06/24 05:14:44;;;;;;;13.77;6.60;;;19.60;99.90;;;;;;5013240;28;20539;-44
2022/06/24 05:17:09;;;;;;;20.02;6.68;;;19.60;99.90;;;;;;5012499;28;20080;-41
2022/06/24 05:19:35;;;;;;;7.82;5.97;;;19.50;99.90;;;;;;5013118;28;20092;-46
2022/06/24 05:22:00;;;;;;;10.00;6.47;;;19.50;99.90;;;;;;5013249;28;20029;-44
2022/06/24 05:24:26;;;;;;;8.65;5.57;;;19.60;99.90;;;;;;5012653;28;20042;-44
2022/06/24 05:26:51;;;;;;;10.23;5.82;;;19.60;99.90;;;;;;5012740;28;20030;-46
2022/06/24 05:29:18;;;;;;;13.80;7.05;;;19.70;99.90;;;;;;4995375;28;20049;-47
2022/06/24 05:31:45;;;;;;;13.73;6.65;;;19.80;99.90;;;;;;4994993;28;20034;-50
2022/06/24 05:34:11;;;;;;;9.77;6.55;;;19.90;99.90;;;;;;5012866;28;20018;-46
2022/06/24 05:36:37;;;;;;;9.45;5.63;;;20.00;99.90;;;;;;5012323;28;20084;-44
2022/06/24 05:39:04;;;;;;;7.53;6.28;;;20.10;99.90;;;;;;5012601;28;20033;-43
2022/06/24 05:41:30;;;;;;;8.68;5.47;;;20.10;99.90;;;;;;5012489;28;20021;-44
2022/06/24 05:43:55;;;;;;;8.70;6.00;;;20.10;99.90;;;;;;5012334;28;20592;-44
2022/06/24 05:46:21;;;;;;;11.30;6.38;;;20.00;99.90;;;;;;5012410;28;20038;-46
2022/06/24 05:48:46;;;;;;;9.50;6.53;;;20.00;99.90;;;;;;5012245;28;20026;-46
2022/06/24 05:51:15;;;;;;;10.05;5.57;;;20.00;99.90;;;;;;5012673;28;20034;-44
2022/06/24 05:56:27;;;;;;;6.82;6.13;;;20.00;99.90;;;;;;5012920;28;20080;-42
2022/06/24 05:58:53;;;;;;;10.23;6.47;;;20.00;99.90;;;;;;5013321;28;20149;-47
2022/06/24 06:01:19;;;;;;;13.10;5.47;;;20.10;99.90;;;;;;5013101;28;20461;-49
2022/06/24 06:03:44;;;;;;;12.15;5.07;;;20.20;99.90;;;;;;5012838;28;20683;-48
2022/06/24 06:06:10;;;;;;;8.18;4.78;;;20.20;99.90;;;;;;5012017;28;20025;-44
2022/06/24 06:08:37;;;;;;;8.85;5.20;;;20.20;99.90;;;;;;5011997;28;20028;-44
2022/06/24 06:11:14;;;;;;;9.35;4.85;;;20.20;99.90;;;;;;5012543;28;20117;-48
2022/06/24 06:13:41;;;;;;;8.60;3.90;;;20.20;99.90;;;;;;5012169;28;20026;-47
2022/06/24 06:16:06;;;;;;;8.10;4.07;;;20.30;99.90;;;;;;5011745;28;20033;-45
2022/06/24 06:18:32;;;;;;;9.63;4.32;;;20.30;99.90;;;;;;5011768;28;20029;-46
2022/06/24 06:21:05;;;;;;;11.10;4.90;;;20.30;99.90;;;;;;5012549;28;20030;-49
2022/06/24 06:23:31;;;;;;;5.78;3.97;;;20.30;99.90;;;;;;5012162;28;20022;-44
2022/06/24 06:26:00;;;;;;;11.40;4.25;;;20.30;99.90;;;;;;5012081;28;20030;-46
2022/06/24 06:28:26;;;;;;;5.10;4.30;;;20.40;99.90;;;;;;5011162;28;20506;-48
2022/06/24 06:30:51;;;;;;;6.68;3.83;;;20.50;99.90;;;;;;5011250;28;20045;-47
2022/06/24 06:33:17;;;;;;;7.50;3.53;;;20.80;99.90;;;;;;5017984;28;20084;-48
2022/06/24 06:35:43;;;;;;;10.63;3.00;;;21.60;99.90;;;;;;5010753;28;20026;-48
2022/06/24 06:38:08;;;;;;;5.18;2.90;;;22.60;99.90;;;;;;5010229;28;20401;-46
2022/06/24 06:40:35;;;;;;;11.55;3.05;;;23.90;99.90;;;;;;5011037;28;20034;-40
2022/06/24 06:43:01;;;;;;;4.43;2.38;;;25.50;99.90;;;;;;5037503;22;20045;-45
2022/06/24 06:45:27;;;;;;;5.95;2.58;;;25.90;99.90;;;;;;5050648;28;20033;-47
2022/06/24 06:47:53;;;;;;;13.85;2.00;;;26.30;99.90;;;;;;5016798;28;20457;-44
2022/06/24 06:50:18;;;;;;;4.80;2.40;;;26.50;99.90;;;;;;5032217;28;20036;-42
2022/06/24 06:52:44;;;;;;;12.85;4.63;;;26.20;99.90;;;;;;5044343;28;20025;-45
2022/06/24 06:55:10;;;;;;;6.07;2.22;;;25.60;99.90;;;;;;5021359;28;20378;-43
2022/06/24 06:57:36;;;;;;;7.00;2.05;;;24.80;99.90;;;;;;5024992;28;20033;-45
2022/06/24 07:00:03;;;;;;;6.65;2.60;;;24.20;99.90;;;;;;5014659;28;20022;-48
2022/06/24 07:02:29;;;;;;;6.57;2.38;;;23.60;99.90;;;;;;5011600;28;20174;-43
2022/06/24 07:04:54;;;;;;;11.35;3.05;;;23.10;99.90;;;;;;5028656;28;20030;-46
2022/06/24 07:07:20;;;;;;;8.43;2.35;;;22.90;99.90;;;;;;5031102;28;20029;-47
2022/06/24 07:09:46;;;;;;;4.30;1.98;;;22.70;99.90;;;;;;5031291;28;20022;-44
2022/06/24 07:12:11;;;;;;;3.72;1.85;;;22.70;99.90;;;;;;5031242;28;20094;-43
2022/06/24 07:14:41;;;;;;;6.03;2.60;;;22.50;99.90;;;;;;5031463;28;20024;-47
2022/06/24 07:17:06;;;;;;;8.68;3.78;;;22.30;99.90;;;;;;5031120;28;20026;-46
2022/06/24 07:19:32;;;;;;;4.43;2.00;;;22.20;99.90;;;;;;5031401;28;20535;-44
2022/06/24 07:21:57;;;;;;;8.27;3.13;;;22.20;99.90;;;;;;5031271;28;20394;-44
2022/06/24 07:24:23;;;;;;;8.40;3.15;;;22.10;99.90;;;;;;5017431;28;20481;-46
2022/06/24 07:26:49;;;;;;;6.50;2.38;;;22.20;99.90;;;;;;5034127;28;20490;-44
2022/06/24 07:29:14;;;;;;;2.40;1.80;;;22.50;99.90;;;;;;5033847;28;20017;-43
2022/06/24 07:31:40;;;;;;;4.68;2.13;;;22.60;99.90;;;;;;5034524;28;20032;-43
2022/06/24 07:34:06;;;;;;;4.40;2.60;;;22.60;99.90;;;;;;5034993;28;20489;-47
2022/06/24 07:36:32;;;;;;;6.30;2.30;;;22.60;99.90;;;;;;5034801;28;20030;-48
2022/06/24 07:38:57;;;;;;;7.97;2.45;;;22.60;99.90;;;;;;5034255;28;20111;-46
2022/06/24 07:41:23;;;;;;;3.97;2.20;;;22.40;99.90;;;;;;5034628;28;20025;-45
2022/06/24 07:43:48;;;;;;;6.25;2.78;;;22.30;99.90;;;;;;5034680;28;20026;-42
2022/06/24 07:46:14;;;;;;;4.95;2.42;;;22.30;99.90;;;;;;5034793;28;20545;-46
2022/06/24 07:48:40;;;;;;;6.63;2.40;;;22.40;99.90;;;;;;5033843;28;20413;-46
2022/06/24 07:51:13;;;;;;;9.80;2.35;;;22.50;99.90;;;;;;5034268;28;20500;-45
2022/06/24 07:53:40;;;;;;;5.20;2.40;;;22.50;99.90;;;;;;5030770;28;20421;-48
2022/06/24 07:58:50;;;;;;;6.83;2.17;;;22.80;99.90;;;;;;5034352;28;20032;-43
2022/06/24 08:01:16;;;;;;;2.63;2.20;;;22.90;99.90;;;;;;5021468;28;20022;-46
2022/06/24 08:03:42;;;;;;;6.75;2.10;;;22.90;99.90;;;;;;5030997;28;20021;-46
2022/06/24 08:06:08;;;;;;;2.95;2.30;;;22.80;99.90;;;;;;5034439;28;20079;-45
2022/06/24 08:08:33;;;;;;;6.57;2.40;;;22.70;99.90;;;;;;5016165;28;20121;-50
2022/06/24 08:10:59;;;;;;;5.07;1.95;;;22.50;99.90;;;;;;5030716;28;20028;-47
2022/06/24 08:13:25;;;;;;;8.27;3.70;;;22.30;99.90;;;;;;5016536;28;20021;-46
2022/06/24 08:15:50;;;;;;;24.05;13.02;;;22.20;99.90;;;;;;5034250;28;20022;-49
2022/06/24 08:18:17;;;;;;;8.70;2.42;;;22.20;99.90;;;;;;5030089;28;20064;-45
2022/06/24 08:20:42;;;;;;;9.27;2.75;;;22.10;99.90;;;;;;5034224;28;20029;-44
2022/06/24 08:23:08;;;;;;;7.82;2.53;;;22.20;99.90;;;;;;5034090;28;20037;-53
2022/06/24 08:25:34;;;;;;;6.05;2.50;;;22.20;99.90;;;;;;5031816;28;20029;-50
2022/06/24 08:27:59;;;;;;;6.18;2.08;;;22.20;99.90;;;;;;5031770;28;20017;-54
2022/06/24 08:30:25;;;;;;;6.40;2.92;;;22.20;99.90;;;;;;5032952;28;20133;-50
2022/06/24 08:32:51;;;;;;;7.13;2.30;;;22.10;99.90;;;;;;5033609;28;20029;-52
2022/06/24 08:35:17;;;;;;;2.78;2.03;;;22.10;99.90;;;;;;5025634;28;20367;-50
2022/06/24 08:37:42;;;;;;;3.55;2.22;;;22.00;99.90;;;;;;5033311;28;20033;-51
2022/06/24 08:40:09;;;;;;;3.13;1.90;;;22.00;99.90;;;;;;5033643;28;20112;-52
2022/06/24 08:42:37;;;;;;;8.63;2.17;;;22.00;99.90;;;;;;5014919;28;20484;-53
2022/06/24 08:45:03;;;;;;;3.55;1.80;;;21.90;99.90;;;;;;5033706;28;20029;-52
2022/06/24 08:47:29;;;;;;;8.98;1.70;;;21.80;99.90;;;;;;5033084;28;20031;-49
2022/06/24 08:49:55;;;;;;;4.45;2.13;;;21.60;99.90;;;;;;5033535;28;20020;-48
2022/06/24 08:52:21;;;;;;;2.28;1.83;;;21.50;99.90;;;;;;5033695;28;20026;-48
2022/06/24 08:54:49;;;;;;;3.13;2.00;;;21.50;99.90;;;;;;5033484;28;20029;-45
2022/06/24 08:57:14;;;;;;;1.88;1.77;;;21.50;99.90;;;;;;5033057;28;20029;-49
2022/06/24 08:59:42;;;;;;;5.28;1.98;;;21.50;99.90;;;;;;5032976;28;20087;-46
2022/06/24 09:02:12;;;;;;;3.65;1.77;;;21.50;99.90;;;;;;5033430;28;20022;-50
2022/06/24 09:04:42;;;;;;;4.97;1.88;;;21.50;99.90;;;;;;5033146;28;20025;-47
2022/06/24 09:07:15;;;;;;;1.48;1.38;;;21.60;99.90;;;;;;5033362;28;20021;-50
2022/06/24 09:09:41;;;;;;;7.05;2.13;;;21.60;99.90;;;;;;5033873;28;20482;-47
2022/06/24 09:12:07;;;;;;;4.28;2.10;;;21.70;99.90;;;;;;5033204;28;20028;-45
2022/06/24 09:14:47;;;;;;;5.00;2.10;;;21.80;99.90;;;;;;5033473;28;20034;-46
2022/06/24 09:17:13;;;;;;;2.42;1.80;;;21.90;99.90;;;;;;5032862;28;20401;-46
2022/06/24 09:19:38;;;;;;;3.05;1.90;;;22.20;99.90;;;;;;5033369;28;20021;-48
2022/06/24 09:22:05;;;;;;;2.55;1.73;;;22.30;99.90;;;;;;5032945;28;20033;-45
2022/06/24 09:24:47;;;;;;;25.80;22.30;;;22.50;99.90;;;;;;5033451;28;20026;-47
2022/06/24 09:27:13;;;;;;;6.55;3.58;;;22.60;99.90;;;;;;5032537;28;20108;-49
2022/06/24 09:29:48;;;;;;;6.55;2.13;;;22.80;99.90;;;;;;5032890;28;20138;-50
2022/06/24 09:32:15;;;;;;;6.30;3.60;;;22.80;99.90;;;;;;5032784;28;20025;-50
2022/06/24 09:35:03;;;;;;;2.90;2.17;;;22.90;99.90;;;;;;5032859;28;20026;-45
2022/06/24 09:37:40;;;;;;;8.02;2.22;;;23.00;99.90;;;;;;5032130;28;20022;-47
2022/06/24 09:40:23;;;;;;;4.25;1.88;;;23.10;99.90;;;;;;5032557;28;20037;-44
2022/06/24 09:43:00;;;;;;;1.92;1.60;;;23.30;99.90;;;;;;5032475;28;20059;-48
2022/06/24 09:45:42;;;;;;;5.32;2.53;;;23.40;99.90;;;;;;5014100;28;20025;-47
2022/06/24 09:48:08;;;;;;;2.00;1.88;;;23.40;99.90;;;;;;5014636;28;20513;-49
2022/06/24 09:50:34;;;;;;;2.30;2.00;;;23.40;99.90;;;;;;5032554;28;20079;-52
2022/06/24 09:53:01;;;;;;;3.70;2.28;;;23.20;99.90;;;;;;5032564;28;20021;-50
2022/06/24 09:55:28;;;;;;;7.68;1.95;;;23.10;99.90;;;;;;5032397;28;20105;-47
2022/06/24 09:57:55;;;;;;;3.17;2.45;;;23.10;99.90;;;;;;5032201;28;20029;-49
2022/06/24 10:03:09;;;;;;;3.60;2.28;;;23.00;99.90;;;;;;5032490;28;20110;-51
2022/06/24 10:05:38;;;;;;;2.55;1.95;;;22.80;99.90;;;;;;5014581;28;20519;-46
2022/06/24 10:08:05;;;;;;;3.40;1.98;;;22.80;99.90;;;;;;5013919;28;20025;-49
2022/06/24 10:10:33;;;;;;;3.90;2.20;;;22.70;99.90;;;;;;5032247;28;20032;-49
2022/06/24 10:13:08;;;;;;;2.20;1.85;;;22.70;99.90;;;;;;5031968;28;20100;-47
2022/06/24 10:15:34;;;;;;;4.82;2.08;;;22.70;99.90;;;;;;5032038;28;20117;-50
2022/06/24 10:18:06;;;;;;;4.65;1.85;;;23.00;99.90;;;;;;5031611;28;20025;-45
2022/06/24 10:20:32;;;;;;;4.20;1.55;;;23.50;99.90;;;;;;5032114;28;20030;-47
2022/06/24 10:22:58;;;;;;;1.67;1.52;;;24.00;99.90;;;;;;5031997;28;20516;-48
2022/06/24 10:26:07;;;;;;;3.40;1.98;;;24.40;99.90;;;;;;5031841;28;20072;-47
2022/06/24 10:28:33;;;;;;;2.20;1.70;;;24.60;99.90;;;;;;4951309;28;20027;-45
2022/06/24 10:30:58;;;;;;;1.65;1.55;;;24.80;99.90;;;;;;5002147;28;20107;-47
2022/06/24 10:33:28;;;;;;;3.20;1.33;;;25.00;99.90;;;;;;5031890;28;20018;-47
2022/06/24 10:36:06;;;;;;;1.75;1.20;;;25.20;99.80;;;;;;5031619;28;20035;-46
2022/06/24 10:38:38;;;;;;;1.42;1.20;;;25.20;98.80;;;;;;5031402;28;20060;-48
2022/06/24 10:41:05;;;;;;;1.55;0.90;;;25.00;99.00;;;;;;5031570;28;20034;-46
2022/06/24 10:43:44;;;;;;;7.68;1.40;;;24.90;99.10;;;;;;5031623;28;20058;-50
2022/06/24 10:46:13;;;;;;;3.65;1.60;;;24.80;99.90;;;;;;5031723;28;20052;-49
2022/06/24 10:48:44;;;;;;;3.30;1.30;;;24.90;99.80;;;;;;5031504;28;20037;-45
2022/06/24 10:51:14;;;;;;;1.60;1.20;;;25.00;98.90;;;;;;5031588;28;20061;-46
2022/06/24 10:54:01;;;;;;;2.60;1.27;;;25.00;99.50;;;;;;5031572;28;20026;-48
2022/06/24 10:56:50;;;;;;;7.32;4.40;;;25.20;99.80;;;;;;5014504;28;20017;-47
2022/06/24 10:59:20;;;;;;;1.85;1.50;;;25.00;98.60;;;;;;5035172;28;20021;-47
2022/06/24 11:01:48;;;;;;;6.55;2.92;;;25.30;99.50;;;;;;5035415;28;20092;-49
2022/06/24 11:04:27;;;;;;;5.35;1.50;;;25.30;98.90;;;;;;5035300;28;20022;-46
2022/06/24 11:07:13;;;;;;;5.10;1.25;;;25.30;98.10;;;;;;5034962;28;20022;-47
2022/06/24 11:09:39;;;;;;;2.38;1.55;;;25.20;98.80;;;;;;5035387;28;20060;-52
2022/06/24 11:12:06;;;;;;;2.47;1.60;;;25.10;98.90;;;;;;5017501;28;20385;-48
2022/06/24 11:14:31;;;;;;;3.75;1.55;;;25.10;99.00;;;;;;5035263;28;20030;-47
2022/06/24 11:16:57;;;;;;;2.33;2.05;;;25.00;99.70;;;;;;5035101;28;20489;-48
2022/06/24 11:19:22;;;;;;;6.72;2.35;;;25.10;99.00;;;;;;5035254;28;20598;-46
2022/06/24 11:21:49;;;;;;;4.72;1.50;;;25.20;99.50;;;;;;5035290;28;20075;-47
2022/06/24 11:24:19;;;;;;;3.28;1.35;;;25.30;98.80;;;;;;5034951;28;20048;-47
2022/06/24 11:27:07;;;;;;;1.27;1.17;;;25.40;98.30;;;;;;5035196;28;20497;-47
2022/06/24 11:29:56;;;;;;;2.42;1.08;;;25.40;98.10;;;;;;5034962;28;20105;-46
2022/06/24 11:32:22;;;;;;;1.98;1.40;;;25.50;97.20;;;;;;5017370;28;20370;-48
2022/06/24 11:34:48;;;;;;;1.55;1.20;;;25.40;97.30;;;;;;5034691;28;20434;-45
2022/06/24 11:37:20;;;;;;;1.95;1.20;;;25.40;97.60;;;;;;5034496;28;20026;-50
2022/06/24 11:39:47;;;;;;;2.72;1.05;;;25.60;96.80;;;;;;5035032;28;20017;-45
2022/06/24 11:42:15;;;;;;;5.80;1.17;;;25.50;96.60;;;;;;5034527;28;20030;-45
2022/06/24 11:44:41;;;;;;;1.70;1.38;;;25.50;97.30;;;;;;5034729;28;20032;-46
2022/06/24 11:47:08;;;;;;;1.30;0.90;;;25.60;96.90;;;;;;5034194;28;20030;-47
2022/06/24 11:49:34;;;;;;;1.05;1.02;;;25.70;96.50;;;;;;5016912;28;20021;-47
2022/06/24 11:52:01;;;;;;;1.58;1.10;;;25.70;95.70;;;;;;5016773;28;20109;-44
2022/06/24 11:54:28;;;;;;;2.38;1.20;;;25.50;95.50;;;;;;5034672;28;20037;-50
2022/06/24 11:56:55;;;;;;;1.85;1.20;;;25.50;96.10;;;;;;5034393;28;20159;-47
2022/06/24 11:59:21;;;;;;;1.88;1.30;;;25.50;96.10;;;;;;5034316;28;20493;-47
2022/06/24 12:01:48;;;;;;;1.50;1.40;;;25.60;96.30;;;;;;5034725;28;20025;-46
2022/06/24 12:04:14;;;;;;;2.28;1.45;;;25.70;95.90;;;;;;5034481;28;20520;-46
2022/06/24 12:06:41;;;;;;;1.90;1.10;;;25.80;94.70;;;;;;5034483;28;20030;-49
2022/06/24 12:09:08;;;;;;;3.75;1.20;;;25.80;95.60;;;;;;5016052;28;20075;-46
2022/06/24 12:11:41;;;;;;;1.25;1.15;;;25.90;94.50;;;;;;5016773;28;20439;-49
2022/06/24 12:14:12;;;;;;;2.97;1.30;;;25.80;95.10;;;;;;5034395;28;20026;-50
2022/06/24 12:17:00;;;;;;;1.33;1.10;;;25.70;95.50;;;;;;5016774;28;20022;-48
2022/06/24 12:19:27;;;;;;;3.45;1.10;;;25.70;97.50;;;;;;5034252;28;20044;-47
2022/06/24 12:22:13;;;;;;;1.63;1.08;;;25.90;96.20;;;;;;5016721;28;20025;-47
2022/06/24 12:24:40;;;;;;;1.33;1.23;;;26.00;95.40;;;;;;5034121;28;20104;-47
2022/06/24 12:27:07;;;;;;;3.33;1.13;;;26.10;94.90;;;;;;5033846;28;20022;-47
2022/06/24 12:29:38;;;;;;;2.58;1.35;;;26.20;94.00;;;;;;5016651;28;20370;-48
2022/06/24 12:32:05;;;;;;;2.97;1.15;;;26.20;93.70;;;;;;5000196;28;20030;-45
2022/06/24 12:34:33;;;;;;;3.47;1.00;;;26.00;94.30;;;;;;5033986;28;20091;-47
2022/06/24 12:37:06;;;;;;;2.83;1.00;;;26.00;93.90;;;;;;5033721;28;20028;-46
2022/06/24 12:39:33;;;;;;;2.05;1.75;;;26.00;94.90;;;;;;5016159;28;20026;-47
2022/06/24 12:41:59;;;;;;;1.00;1.00;;;26.10;93.20;;;;;;5033957;28;20523;-46
2022/06/24 12:44:49;;;;;;;1.35;1.15;;;26.10;93.40;;;;;;5035103;28;20029;-47
2022/06/24 12:53:02;;;;;;;3.65;1.33;;;26.30;93.80;;;;;;5033788;28;20033;-47
2022/06/24 12:55:30;;;;;;;14.55;10.95;;;26.40;93.20;;;;;;5033497;28;20592;-45
2022/06/24 12:57:56;;;;;;;22.15;17.00;;;26.60;92.60;;;;;;5033007;28;20401;-47
2022/06/24 13:00:23;;;;;;;1.50;1.02;;;26.60;92.70;;;;;;5033464;28;20029;-50
2022/06/24 13:02:52;;;;;;;2.10;1.05;;;26.70;91.90;;;;;;5033297;28;20065;-48
2022/06/24 13:05:21;;;;;;;3.38;1.10;;;26.70;91.10;;;;;;5033183;28;20021;-50